Flight Track Log - Related Links

Times and Time Zones

All times are in EDT time to prevent confusion due to time zone crossing. See the JBU180 flight status page for this flight to view local times or setup timezone preferences in your user account.

Time Position Orientation Groundspeed Altitude Reporting Facility
EDT Latitude Longitude Course Direction KTS MPH feet Rate Location/Type
Thu 02:54:12 AM 33.4333 -112.0333 67° East 185 213 2,200  Level Phoenix TRACON
Thu 02:54:48 AM 33.4500 -112.0833 292° West 188 216 3,200 1,438 Climbing Phoenix TRACON
Thu 02:55:48 AM 33.4500 -112.1500 270° West 254 292 4,500 1,714 Climbing Phoenix TRACON
Thu 02:56:54 AM 33.5167 -112.2167 320° Northwest 296 341 6,800 2,042 Climbing Phoenix TRACON
Thu 02:58:00 AM 33.6712 -111.3050 69° East  Level FlightAware Approximate
Thu 02:58:12 AM 33.6064 -112.1539 30° Northeast 316 364 9,400  Level Albuquerque Center
Thu 02:59:00 AM 33.7190 -111.1652 67° East  Level FlightAware Approximate
Thu 02:59:13 AM 33.6172 -112.0494 83° East 319 367 10,700  Level Albuquerque Center
Thu 03:00:13 AM 33.6292 -111.9269 83° East 371 427 11,800 1,450 Climbing Albuquerque Center
Thu 03:01:13 AM 33.6408 -111.7975 84° East 393 452 13,600 1,636 Climbing Albuquerque Center
Thu 03:02:14 AM 33.6536 -111.6633 83° East 409 471 15,100 1,537 Climbing Albuquerque Center
Thu 03:03:14 AM 33.6661 -111.5242 84° East 422 486 16,700 1,650 Climbing Albuquerque Center
Thu 03:04:14 AM 33.6778 -111.3819 84° East 432 497 18,400 1,636 Climbing Albuquerque Center
Thu 03:05:15 AM 33.6989 -111.2392 80° East 439 505 20,000 1,537 Climbing Albuquerque Center
Thu 03:06:15 AM 33.7478 -111.1017 67° East 451 519 21,500 1,400 Climbing Albuquerque Center
Thu 03:07:15 AM 33.7969 -110.9625 67° East 454 522 22,800 1,190 Climbing Albuquerque Center
Thu 03:08:16 AM 33.8467 -110.8217 67° East 460 529 23,900 1,041 Climbing Albuquerque Center
Thu 03:09:16 AM 33.8983 -110.6761 67° East 468 539 24,900 1,041 Climbing Albuquerque Center
Thu 03:10:17 AM 33.9500 -110.5292 67° East 475 547 26,000 1,140 Climbing Albuquerque Center
Thu 03:11:17 AM 34.0103 -110.3539 67° East 481 554 27,200 1,100 Climbing Albuquerque Center
Thu 03:12:17 AM 34.0642 -110.1994 67° East 494 568 28,200 893 Climbing Albuquerque Center
Thu 03:13:18 AM 34.1142 -110.0600 67° East 495 570 29,000 992 Climbing Albuquerque Center
Thu 03:14:18 AM 34.1733 -109.8853 68° East 501 577 30,200 1,050 Climbing Albuquerque Center
Thu 03:15:18 AM 34.2244 -109.7378 67° East 500 575 31,100 942 Climbing Albuquerque Center
Thu 03:16:19 AM 34.2817 -109.5922 65° Northeast 501 577 32,100 843 Climbing Albuquerque Center
Thu 03:17:19 AM 34.3469 -109.4253 65° Northeast 495 570 32,800 450 Climbing Albuquerque Center
Thu 03:18:19 AM 34.4028 -109.2789 65° Northeast 499 574 33,000 99 Climbing Albuquerque Center
Thu 03:19:20 AM 34.4567 -109.1331 66° East 498 573 33,000  Level Albuquerque Center
Thu 03:20:20 AM 34.5125 -108.9872 65° Northeast 498 573 33,000 50 Level Albuquerque Center
Thu 03:21:20 AM 34.5761 -108.8181 65° Northeast 497 572 33,100 496 Climbing Albuquerque Center
Thu 03:22:21 AM 34.6297 -108.6731 66° East 495 570 34,000 744 Climbing Albuquerque Center
Thu 03:23:21 AM 34.6839 -108.5289 65° Northeast 493 567 34,600 500 Climbing Albuquerque Center
Thu 03:24:21 AM 34.7369 -108.3847 66° East 492 566 35,000 198 Climbing Albuquerque Center
Thu 03:25:22 AM 34.7922 -108.2353 66° East 487 560 35,000  Level Albuquerque Center
Thu 03:26:22 AM 34.8514 -108.0706 66° East 492 566 35,000  Level Albuquerque Center
Thu 03:27:23 AM 34.9142 -107.9011 66° East 493 567 35,000  Level Albuquerque Center
Thu 03:28:23 AM 34.9594 -107.7767 66° East 493 567 35,000 -50 Level Albuquerque Center
Thu 03:29:23 AM 35.0139 -107.6233 67° East 493 567 34,900  Descending Albuquerque Center
Thu 03:30:24 AM 35.0703 -107.4667 66° East 498 573 35,000 50 Climbing Albuquerque Center
Thu 03:31:24 AM 35.1261 -107.3103 66° East 500 575 35,000 -50 Level Albuquerque Center
Thu 03:32:24 AM 35.1892 -107.1347 66° East 506 582 34,900  Descending Albuquerque Center
Thu 03:33:25 AM 35.2431 -106.9817 67° East 512 589 35,000 50 Climbing Albuquerque Center
Thu 03:34:25 AM 35.3050 -106.8042 67° East 510 587 35,000  Level Albuquerque Center
Thu 03:35:25 AM 35.3608 -106.6519 66° East 511 588 35,000  Level Albuquerque Center
Thu 03:36:26 AM 35.4114 -106.5039 67° East 510 587 35,000 -50 Level Albuquerque Center
Thu 03:37:26 AM 35.4658 -106.3464 67° East 505 581 34,900  Descending Albuquerque Center
Thu 03:38:26 AM 35.5214 -106.1894 66° East 501 577 35,000 50 Climbing Albuquerque Center
Thu 03:39:27 AM 35.5736 -106.0308 68° East 501 577 35,000  Level Albuquerque Center
Thu 03:40:27 AM 35.6319 -105.8622 67° East 503 579 35,000  Level Albuquerque Center
Thu 03:41:27 AM 35.6806 -105.7147 68° East 499 574 35,000  Level Albuquerque Center
Thu 03:42:28 AM 35.7344 -105.5569 67° East 500 575 35,000  Level Albuquerque Center
Thu 03:43:28 AM 35.7914 -105.3869 68° East 494 568 35,000  Level Albuquerque Center
Thu 03:44:28 AM 35.8439 -105.2303 68° East 491 565 35,000  Level Albuquerque Center
Thu 03:45:29 AM 35.8953 -105.0744 68° East 486 559 35,000  Level Albuquerque Center
Thu 03:46:29 AM 35.9461 -104.9178 68° East 486 559 35,000  Level Albuquerque Center
Thu 03:47:29 AM 35.9969 -104.7644 68° East 480 552 35,000 -50 Level Albuquerque Center
Thu 03:48:30 AM 36.0461 -104.6111 68° East 475 547 34,900  Descending Albuquerque Center
Thu 03:49:30 AM 36.0950 -104.4592 68° East 472 543 35,000 50 Climbing Albuquerque Center
Thu 03:50:31 AM 36.1453 -104.3050 68° East 475 547 35,000  Level Albuquerque Center
Thu 03:51:31 AM 36.1961 -104.1500 68° East 479 551 35,000  Level Albuquerque Center
Thu 03:52:31 AM 36.2456 -103.9964 68° East 477 549 35,000  Level Albuquerque Center
Thu 03:53:32 AM 36.2947 -103.8411 69° East 477 549 35,000  Level Albuquerque Center
Thu 03:54:32 AM 36.3447 -103.6856 68° East 480 552 35,000  Level Albuquerque Center
Thu 03:55:32 AM 36.3856 -103.5542 69° East 482 555 35,000  Level Albuquerque Center
Thu 03:56:33 AM 36.4347 -103.3975 69° East 483 556 35,000  Level Albuquerque Center
Thu 03:57:33 AM 36.4836 -103.2397 69° East 483 556 35,000  Level Albuquerque Center
Thu 03:58:33 AM 36.5328 -103.0836 69° East 482 555 35,000  Level Albuquerque Center
Thu 03:59:34 AM 36.5811 -102.9253 69° East 485 558 35,000  Level Albuquerque Center
Thu 04:00:34 AM 36.6311 -102.7614 69° East 484 557 35,000  Level Albuquerque Center
Thu 04:01:34 AM 36.6764 -102.6128 69° East 482 555 35,000  Level Albuquerque Center
Thu 04:02:35 AM 36.7228 -102.4569 70° East 489 563 35,000  Level Albuquerque Center
Thu 04:03:35 AM 36.7706 -102.3003 69° East 486 559 35,000  Level Albuquerque Center
Thu 04:04:35 AM 36.8197 -102.1350 70° East 485 558 35,000  Level Albuquerque Center
Thu 04:05:35 AM 36.8717 -101.9564 70° East 488 562 35,000  Level Albuquerque Center
Thu 04:06:36 AM 36.9178 -101.8056 69° East 488 562 35,000  Level Albuquerque Center
Thu 04:07:36 AM 36.9619 -101.6531 70° East 488 562 35,000  Level Albuquerque Center
Thu 04:09:04 AM 37.0286 -101.4250 70° East 488 562 35,000  Level Kansas City Center
Thu 04:10:04 AM 37.0803 -101.2456 70° East 490 564 35,000  Level Kansas City Center
Thu 04:11:05 AM 37.1244 -101.0931 70° East 491 565 35,000  Level Kansas City Center
Thu 04:12:05 AM 37.1683 -100.9406 70° East 490 564 35,000  Level Kansas City Center
Thu 04:13:06 AM 37.2194 -100.7617 70° East 492 566 35,000  Level Kansas City Center
Thu 04:14:06 AM 37.2639 -100.6081 70° East 494 568 35,000  Level Kansas City Center
Thu 04:15:07 AM 37.3072 -100.4544 70° East 492 566 35,000  Level Kansas City Center
Thu 04:16:08 AM 37.3575 -100.2744 71° East 492 566 35,000  Level Kansas City Center
Thu 04:17:08 AM 37.4003 -100.1200 71° East 492 566 35,000  Level Kansas City Center
Thu 04:18:09 AM 37.4500 -99.9392 71° East 492 566 35,000  Level Kansas City Center
Thu 04:19:09 AM 37.4928 -99.7853 71° East 490 564 35,000  Level Kansas City Center
Thu 04:20:10 AM 37.5344 -99.6281 71° East 494 568 35,000  Level Kansas City Center
Thu 04:21:10 AM 37.5822 -99.4586 70° East 497 572 35,000  Level Kansas City Center
Thu 04:22:11 AM 37.6264 -99.2961 71° East 494 568 35,000  Level Kansas City Center
Thu 04:23:12 AM 37.6703 -99.1344 71° East 489 563 35,000 -50 Level Kansas City Center
Thu 04:24:12 AM 37.7125 -98.9744 72° East 483 556 34,900 -50 Descending Kansas City Center
Thu 04:25:13 AM 37.7547 -98.8136 72° East 481 554 34,900 49 Level Kansas City Center
Thu 04:26:14 AM 37.7956 -98.6528 72° East 483 556 35,000 50 Climbing Kansas City Center
Thu 04:27:14 AM 37.8375 -98.4922 72° East 483 556 35,000  Level Kansas City Center
Thu 04:28:15 AM 37.8814 -98.3300 71° East 485 558 35,000  Level Kansas City Center
Thu 04:29:15 AM 37.9236 -98.1667 72° East 487 560 35,000  Level Kansas City Center
Thu 04:30:16 AM 37.9714 -97.9858 71° East 481 554 35,000  Level Kansas City Center
Thu 04:31:17 AM 38.0108 -97.8206 73° East 501 577 35,000  Level Kansas City Center
Thu 04:32:17 AM 38.0500 -97.6678 72° East 480 552 35,000 -50 Level Kansas City Center
Thu 04:33:18 AM 38.0897 -97.5081 72° East 477 549 34,900  Descending Kansas City Center
Thu 04:34:19 AM 38.1297 -97.3478 72° East 475 547 35,000 50 Climbing Kansas City Center
Thu 04:35:19 AM 38.1700 -97.1872 72° East 477 549 35,000  Level Kansas City Center
Thu 04:36:20 AM 38.2094 -97.0264 73° East 476 548 35,000  Level Kansas City Center
Thu 04:37:21 AM 38.2481 -96.8647 73° East 477 549 35,000  Level Kansas City Center
Thu 04:38:21 AM 38.2881 -96.7031 72° East 479 551 35,000  Level Kansas City Center
Thu 04:39:22 AM 38.3269 -96.5419 73° East 478 550 35,000  Level Kansas City Center
Thu 04:40:22 AM 38.3658 -96.3792 73° East 473 544 35,000 -50 Level Kansas City Center
Thu 04:41:23 AM 38.4089 -96.1981 73° East 478 550 34,900  Descending Kansas City Center
Thu 04:42:24 AM 38.4464 -96.0428 73° East 479 551 35,000 50 Climbing Kansas City Center
Thu 04:43:24 AM 38.4831 -95.8836 74° East 487 560 35,000  Level Kansas City Center
Thu 04:44:25 AM 38.5253 -95.7028 73° East 480 552 35,000  Level Kansas City Center
Thu 04:45:25 AM 38.5619 -95.5472 73° East 479 551 35,000  Level Kansas City Center
Thu 04:46:26 AM 38.5972 -95.3911 74° East 479 551 35,000  Level Kansas City Center
Thu 04:47:27 AM 38.6386 -95.2083 74° East 481 554 35,000 -50 Level Kansas City Center
Thu 04:48:27 AM 38.6736 -95.0556 74° East 474 545 34,900  Descending Kansas City Center
Thu 04:49:28 AM 38.7086 -94.9000 74° East 477 549 35,000 49 Climbing Kansas City Center
Thu 04:50:29 AM 38.7489 -94.7189 74° East 477 549 35,000  Level Kansas City Center
Thu 04:51:29 AM 38.7836 -94.5631 74° East 478 550 35,000  Level Kansas City Center
Thu 04:52:30 AM 38.8181 -94.4056 74° East 481 554 35,000  Level Kansas City Center
Thu 04:53:30 AM 38.8578 -94.2200 75° East 484 557 35,000  Level Kansas City Center
Thu 04:54:31 AM 38.8922 -94.0619 74° East 482 555 35,000  Level Kansas City Center
Thu 04:55:32 AM 38.9272 -93.9014 74° East 487 560 35,000  Level Kansas City Center
Thu 04:56:32 AM 38.9667 -93.7183 74° East 487 560 35,000  Level Kansas City Center
Thu 04:57:33 AM 39.0033 -93.5494 74° East 487 560 35,000  Level Kansas City Center
Thu 04:58:34 AM 39.0383 -93.3797 75° East 482 555 35,000  Level Kansas City Center
Thu 04:59:34 AM 39.0739 -93.2086 75° East 492 566 35,000  Level Kansas City Center
Thu 05:00:35 AM 39.1078 -93.0400 75° East 494 568 35,000  Level Kansas City Center
Thu 05:01:35 AM 39.1422 -92.8733 75° East 493 567 35,000 -50 Level Kansas City Center
Thu 05:02:36 AM 39.1783 -92.6989 75° East 489 563 34,900  Descending Kansas City Center
Thu 05:03:37 AM 39.2122 -92.5272 76° East 490 564 35,000 50 Climbing Kansas City Center
Thu 05:04:37 AM 39.2464 -92.3553 76° East 491 565 35,000  Level Kansas City Center
Thu 05:05:38 AM 39.2778 -92.1989 75° East 494 568 35,000  Level Kansas City Center
Thu 05:06:38 AM 39.3111 -92.0294 76° East 494 568 35,000  Level Kansas City Center
Thu 05:07:39 AM 39.3514 -91.8261 76° East 494 568 35,000 -50 Level Kansas City Center
Thu 05:08:39 AM 39.3814 -91.6686 76° East 487 560 34,900 -50 Descending Kansas City Center
Thu 05:09:40 AM 39.4136 -91.4989 76° East 485 558 34,900 50 Level Kansas City Center
Thu 05:10:40 AM 39.4464 -91.3278 76° East 488 562 35,000 50 Climbing Kansas City Center
Thu 05:11:41 AM 39.4786 -91.1561 76° East 490 564 35,000  Level Kansas City Center
Thu 05:12:41 AM 39.5106 -90.9856 76° East 489 563 35,000  Level Kansas City Center
Thu 05:13:42 AM 39.5433 -90.8164 76° East 487 560 35,000  Level Kansas City Center
Thu 05:14:43 AM 39.5736 -90.6464 77° East 485 558 35,000  Level Kansas City Center
Thu 05:15:43 AM 39.6039 -90.4767 77° East 483 556 35,000  Level Kansas City Center
Thu 05:16:44 AM 39.6350 -90.3061 77° East 484 557 35,000 -50 Level Kansas City Center
Thu 05:17:44 AM 39.6653 -90.1361 77° East 483 556 34,900  Descending Kansas City Center
Thu 05:18:45 AM 39.6953 -89.9656 77° East 483 556 35,000 49 Climbing Kansas City Center
Thu 05:19:46 AM 39.7239 -89.8017 77° East 484 557 35,000  Level Kansas City Center
Thu 05:20:46 AM 39.7536 -89.6328 77° East 484 557 35,000  Level Kansas City Center
Thu 05:21:47 AM 39.7825 -89.4617 78° East 484 557 35,000  Level Kansas City Center
Thu 05:22:47 AM 39.8172 -89.2575 77° East 484 557 35,000 -50 Level Kansas City Center
Thu 05:23:48 AM 39.8461 -89.0881 77° East 483 556 34,900  Descending Kansas City Center
Thu 05:25:22 AM 39.8842 -88.8500 78° East 486 559 35,000 39 Climbing Chicago Center
Thu 05:26:23 AM 39.9192 -88.6422 78° East 490 564 35,000  Level Chicago Center
Thu 05:27:23 AM 39.9461 -88.4703 78° East 489 563 35,000  Level Chicago Center
Thu 05:28:24 AM 39.9742 -88.3003 78° East 484 557 35,000 -50 Level Chicago Center
Thu 05:29:24 AM 40.0019 -88.1275 78° East 485 558 34,900 -50 Descending Chicago Center
Thu 05:30:25 AM 40.0289 -87.9583 78° East 480 552 34,900 50 Level Chicago Center
Thu 05:31:25 AM 40.0572 -87.7858 78° East 484 557 35,000 50 Climbing Chicago Center
Thu 05:32:26 AM 40.0839 -87.6128 79° East 487 560 35,000  Level Chicago Center
Thu 05:33:26 AM 40.1106 -87.4414 78° East 483 556 35,000  Level Chicago Center
Thu 05:34:27 AM 40.1369 -87.2694 79° East 484 557 35,000  Level Chicago Center
Thu 05:35:28 AM 40.1625 -87.0981 79° East 482 555 35,000  Level Chicago Center
Thu 05:36:28 AM 40.1875 -86.9258 79° East 482 555 35,000  Level Chicago Center
Thu 05:37:29 AM 40.2133 -86.7533 79° East 482 555 35,000  Level Chicago Center
Thu 05:38:29 AM 40.2383 -86.5806 79° East 481 554 35,000  Level Chicago Center
Thu 05:39:30 AM 40.2631 -86.4089 79° East 478 550 35,000  Level Chicago Center
Thu 05:40:30 AM 40.2883 -86.2364 79° East 479 551 35,000  Level Chicago Center
Thu 05:41:31 AM 40.3125 -86.0631 80° East 481 554 35,000  Level Chicago Center
Thu 05:42:31 AM 40.3361 -85.8908 80° East 480 552 35,000  Level Chicago Center
Thu 05:43:32 AM 40.3594 -85.7192 80° East 479 551 35,000  Level Chicago Center
Thu 05:44:32 AM 40.3822 -85.5467 80° East 480 552 35,000 -50 Level Chicago Center
Thu 05:45:33 AM 40.4061 -85.3739 80° East 483 556 34,900  Descending Chicago Center
Thu 05:46:34 AM 40.4292 -85.2014 80° East 482 555 35,000 50 Climbing Chicago Center
Thu 05:47:34 AM 40.4511 -85.0269 81° East 485 558 35,000  Level Chicago Center
Thu 05:48:35 AM 40.4739 -84.8525 80° East 486 559 35,000  Level Chicago Center
Thu 05:49:35 AM 40.4964 -84.6775 80° East 488 562 35,000  Level Chicago Center
Thu 05:50:36 AM 40.5178 -84.4897 81° East 494 568 35,000  Level Chicago Center
Thu 05:51:36 AM 40.5406 -84.3161 80° East 487 560 35,000 -50 Level Chicago Center
Thu 05:52:37 AM 40.5619 -84.1439 81° East 482 555 34,900 -50 Descending Chicago Center
Thu 05:53:37 AM 40.5831 -83.9700 81° East 484 557 34,900 50 Level Chicago Center
Thu 05:54:38 AM 40.6028 -83.7961 81° East 483 556 35,000 49 Climbing Chicago Center
Thu 05:55:39 AM 40.6244 -83.6211 81° East 486 559 35,000  Level Chicago Center
Thu 05:56:39 AM 40.6447 -83.4444 81° East 488 562 35,000 -47 Level Chicago Center
Thu 05:57:46 AM 40.6703 -83.2222 81° East 484 557 34,900 -47 Descending Cleveland Center
Thu 05:58:46 AM 40.6886 -83.0614 81° East 484 557 34,900  Level Cleveland Center
Thu 05:59:46 AM 40.7067 -82.8867 82° East 479 551 34,900  Level Cleveland Center
Thu 06:00:46 AM 40.7247 -82.7119 82° East 479 551 34,900 50 Level Cleveland Center
Thu 06:01:46 AM 40.7447 -82.5344 81° East 479 551 35,000 50 Climbing Cleveland Center
Thu 06:02:46 AM 40.7619 -82.3650 82° East 479 551 35,000  Level Cleveland Center
Thu 06:03:46 AM 40.7833 -82.1872 81° East 479 551 35,000  Level Cleveland Center
Thu 06:04:46 AM 40.8128 -82.0153 77° East 479 551 35,000  Level Cleveland Center
Thu 06:05:46 AM 40.8628 -81.8378 70° East 468 539 35,000 -50 Level Cleveland Center
Thu 06:06:46 AM 40.9061 -81.6711 71° East 476 548 34,900  Descending Cleveland Center
Thu 06:07:46 AM 40.9514 -81.5042 70° East 482 555 35,000 50 Climbing Cleveland Center
Thu 06:08:46 AM 40.9986 -81.3342 70° East 482 555 35,000  Level Cleveland Center
Thu 06:09:46 AM 41.0433 -81.1667 70° East 482 555 35,000  Level Cleveland Center
Thu 06:10:46 AM 41.0858 -81.0156 69° East 482 555 35,000  Level Cleveland Center
Thu 06:11:46 AM 41.1300 -80.8506 70° East 482 555 35,000  Level Cleveland Center
Thu 06:12:46 AM 41.1761 -80.6658 72° East 487 560 35,000  Level Cleveland Center
Thu 06:13:46 AM 41.2200 -80.4975 71° East 482 555 35,000  Level Cleveland Center
Thu 06:14:46 AM 41.2553 -80.3594 71° East 487 560 35,000  Level Cleveland Center
Thu 06:15:46 AM 41.3047 -80.1686 71° East 487 560 35,000  Level Cleveland Center
Thu 06:16:46 AM 41.3478 -79.9967 72° East 487 560 35,000 -50 Level Cleveland Center
Thu 06:17:46 AM 41.3906 -79.8247 72° East 487 560 34,900  Descending Cleveland Center
Thu 06:18:46 AM 41.4331 -79.6525 72° East 487 560 35,000 50 Climbing Cleveland Center
Thu 06:19:46 AM 41.4772 -79.4800 71° East 487 560 35,000 -50 Level Cleveland Center
Thu 06:20:46 AM 41.5194 -79.3103 72° East 487 560 34,900 -50 Descending Cleveland Center
Thu 06:21:46 AM 41.5611 -79.1372 72° East 487 560 34,900  Level Cleveland Center
Thu 06:22:46 AM 41.6025 -78.9642 72° East 487 560 34,900 50 Level Cleveland Center
Thu 06:23:46 AM 41.6439 -78.7936 72° East 487 560 35,000 50 Climbing Cleveland Center
Thu 06:24:46 AM 41.6869 -78.6200 72° East 487 560 35,000  Level Cleveland Center
Thu 06:25:46 AM 41.7275 -78.4464 73° East 487 560 35,000  Level Cleveland Center
Thu 06:26:46 AM 41.7678 -78.2725 73° East 487 560 35,000  Level Cleveland Center
Thu 06:27:46 AM 41.8058 -78.0983 74° East 487 560 35,000  Level Cleveland Center
Thu 06:29:02 AM 41.8286 -77.8581 83° East 474 545 35,000  Level New York Center
Thu 06:30:02 AM 41.8136 -77.6894 97° East 486 559 35,000  Level New York Center
Thu 06:31:03 AM 41.7719 -77.5072 107° East 496 571 35,000  Level New York Center
Thu 06:32:00 AM 41.7258 -77.3272 109° East 502 578 35,000  Level New York Center
Thu 06:33:03 AM 41.6772 -77.1475 110° East 507 583 35,000  Level New York Center
Thu 06:34:01 AM 41.6286 -76.9625 109° East 519 597 35,000  Level New York Center
Thu 06:35:01 AM 41.5794 -76.7831 110° East 519 597 35,000  Level New York Center
Thu 06:36:01 AM 41.5269 -76.5872 110° East 519 597 35,000 -49 Level New York Center
Thu 06:37:03 AM 41.4772 -76.4083 110° East 519 597 34,900 -454 Descending New York Center
Thu 06:38:00 AM 41.4308 -76.2414 110° East 524 603 34,100 -1,678 Descending New York Center
Thu 06:39:01 AM 41.3786 -76.0600 111° Southeast 524 603 31,600 -2,678 Descending New York Center
Thu 06:40:01 AM 41.3300 -75.8878 111° Southeast 509 586 28,700 -2,430 Descending New York Center
Thu 06:41:02 AM 41.2811 -75.7128 110° East 504 580 26,700 -1,918 Descending New York Center
Thu 06:42:03 AM 41.2236 -75.5431 114° Southeast 504 580 24,800 -1,835 Descending New York Center
Thu 06:43:03 AM 41.1714 -75.3850 114° Southeast 485 558 23,000 -915 Descending New York Center
Thu 06:44:01 AM 41.1133 -75.2158 114° Southeast 480 552 23,000 -51 Level New York Center
Thu 06:45:01 AM 41.0569 -75.0497 114° Southeast 488 562 22,900 -151 Descending New York Center
Thu 06:46:00 AM 41.0028 -74.8761 112° Southeast 479 551 22,700 -550 Descending New York Center
Thu 06:47:01 AM 40.9806 -74.7289 101° East 419 482 21,800 -916 Descending New York Center
Thu 06:48:11 AM 40.9833 -74.5667 89° East 388 447 20,700 -923 Descending New York TRACON
Thu 06:49:11 AM 40.9667 -74.4167 98° East 383 441 19,800 -850 Descending New York TRACON
Thu 06:50:11 AM 40.9333 -74.3000 111° Southeast 373 429 19,000 -400 Descending New York TRACON
Thu 06:51:11 AM 40.8500 -74.2167 143° Southeast 371 427 19,000 -450 Level New York TRACON
Thu 06:52:11 AM 40.7667 -74.1500 149° Southeast 364 419 18,100 -1,000 Descending New York TRACON
Thu 06:53:05 AM 40.6833 -74.1000 156° South 349 402 17,100 -2,071 Descending New York TRACON
Thu 06:54:59 AM 40.5167 -74.0000 155° Southeast 328 377 12,300 -2,621 Descending New York TRACON
Thu 06:55:59 AM 40.4500 -73.9500 150° Southeast 306 352 9,500 -2,750 Descending New York TRACON
Thu 06:56:59 AM 40.3833 -73.8833 143° Southeast 292 336 6,800 -2,789 Descending New York TRACON
Thu 06:57:53 AM 40.3333 -73.8167 135° Southeast 279 321 4,200 -2,000 Descending New York TRACON
Thu 06:58:53 AM 40.3167 -73.7167 102° East 270 311 3,000 -632 Descending New York TRACON
Thu 06:59:47 AM 40.3500 -73.6500 57° Northeast 277 319 3,000  Level New York TRACON
Thu 07:00:47 AM 40.4167 -73.6000 30° Northeast 262 302 3,000 -250 Level New York TRACON
Thu 07:01:47 AM 40.4667 -73.5667 27° Northeast 215 247 2,500 -526 Descending New York TRACON
Thu 07:02:41 AM 40.5000 -73.5500 21° North 193 222 2,000 -278 Descending New York TRACON
Thu 07:03:35 AM 40.5500 -73.5667 346° North 190 219 2,000  Level New York TRACON
Thu 07:04:35 AM 40.5833 -73.6167 311° West 183 211 2,000 -200 Level New York TRACON
Thu 07:05:35 AM 40.6000 -73.6667 294° West 150 173 1,600 -526 Descending New York TRACON
Thu 07:06:29 AM 40.6167 -73.7167 294° West 131 151 1,000 -684 Descending New York TRACON
Thu 07:07:29 AM 40.6333 -73.7500 303° West 132 152 300 -700 Descending New York TRACON

Login

Don't have an account? Register now (free) for customized features, flight alerts, and more!